Time;durP1;ratioP1;P1;durP2;ratioP2;P2;SDS_P1;SDS_P2;PMS_P1;PMS_P2;Temp;Humidity;BMP_temperature;BMP_pressure;BME280_temperature;BME280_humidity;BME280_pressure;Samples;Min_cycle;Max_cycle;Signal;HPM_P1;HPM_P2
2023/01/20 00:02:19;;;;;;;;;2.33;0.00;;;;;17.16;51.56;100167.91;146609;570;47915;-69
2023/01/20 00:05:24;;;;;;;;;0.00;0.00;;;;;17.15;51.46;100174.88;146622;686;46020;-67
2023/01/20 00:08:28;;;;;;;;;2.33;1.67;;;;;17.16;51.46;100170.53;146617;570;46035;-66
2023/01/20 00:11:22;;;;;;;;;0.00;0.00;;;;;17.16;52.14;100167.91;146615;613;46012;-67
2023/01/20 00:14:14;;;;;;;;;0.33;0.00;;;;;17.15;52.09;100174.88;146619;625;46014;-66
2023/01/20 00:17:19;;;;;;;;;2.00;1.00;;;;;17.14;52.36;100157.41;146625;640;46010;-67
2023/01/20 00:20:23;;;;;;;;;2.00;0.00;;;;;17.11;52.63;100177.47;146618;592;46012;-68
2023/01/20 00:23:29;;;;;;;;;1.00;1.00;;;;;15.82;52.16;99911.84;146623;671;46010;-71
2023/01/20 00:26:27;;;;;;;;;1.00;0.00;;;;;17.13;52.94;100133.81;146619;576;46012;-72
2023/01/20 00:29:27;;;;;;;;;2.33;1.00;;;;;17.13;53.62;100152.16;146624;564;46021;-70
2023/01/20 00:32:44;;;;;;;;;;;;;;;;;;;;;
2023/01/20 00:35:51;;;;;;;;;0.33;0.33;;;;;17.02;53.13;100146.75;146623;588;46010;-69
2023/01/20 00:38:48;;;;;;;;;2.33;1.00;;;;;17.02;53.67;100142.37;146618;569;46016;-68
2023/01/20 00:41:44;;;;;;;;;2.67;0.00;;;;;16.99;53.59;100139.72;146617;573;46010;-68
2023/01/20 00:44:44;;;;;;;;;1.00;0.00;;;;;16.95;53.96;100144.91;146610;678;46014;-67
2023/01/20 00:47:44;;;;;;;;;0.67;0.00;;;;;16.95;54.51;100140.53;146621;574;46012;-67
2023/01/20 00:50:39;;;;;;;;;0.33;0.00;;;;;16.97;53.98;100153.63;146620;597;46017;-67
2023/01/20 00:53:46;;;;;;;;;1.00;0.00;;;;;16.94;53.49;100138.75;146619;569;46010;-68
2023/01/20 00:56:44;;;;;;;;;4.33;0.00;;;;;16.94;54.85;100137.88;146617;694;46016;-67
2023/01/20 00:59:37;;;;;;;;;3.00;0.00;;;;;16.93;54.35;100151.84;146621;669;46021;-67
2023/01/20 01:02:41;;;;;;;;;0.33;0.00;;;;;16.94;53.92;100124.78;146619;569;46915;-66
2023/01/20 01:05:40;;;;;;;;;2.00;0.00;;;;;16.91;54.07;100117.75;146621;643;47010;-66
2023/01/20 01:08:36;;;;;;;;;1.00;0.00;;;;;16.89;54.87;100111.63;146619;620;46012;-67
2023/01/20 01:11:32;;;;;;;;;1.33;0.00;;;;;16.90;54.47;100099.41;146611;672;46020;-69
2023/01/20 01:14:45;;;;;;;;;1.67;0.33;;;;;16.91;53.63;100102.03;146620;586;46034;-67
2023/01/20 01:17:56;;;;;;;;;0.00;0.00;;;;;14.63;54.11;99713.84;146616;573;46915;-67
2023/01/20 01:20:51;;;;;;;;;3.00;0.00;;;;;16.94;54.21;100107.31;146621;587;46013;-68
2023/01/20 01:23:51;;;;;;;;;2.00;0.00;;;;;16.95;54.33;100096.03;146621;618;46010;-68
2023/01/20 01:27:05;;;;;;;;;;;;;;;;;;;;;
2023/01/20 01:30:07;;;;;;;;;0.00;0.00;;;;;16.94;55.63;100069.78;146619;585;46023;-69
2023/01/20 01:33:02;;;;;;;;;0.67;0.00;;;;;16.91;55.86;100080.22;146619;627;46012;-68
2023/01/20 01:36:07;;;;;;;;;1.00;0.00;;;;;16.86;56.67;100095.88;146623;584;46012;-68
2023/01/20 01:39:13;;;;;;;;;0.00;0.00;;;;;16.74;58.06;100086.03;146618;588;46016;-68
2023/01/20 01:42:34;;;;;;;;;0.33;0.00;;;;;15.34;59.53;99834.34;146610;572;46013;-69
2023/01/20 01:45:48;;;;;;;;;;;;;;;;;;;;;
2023/01/20 01:48:50;;;;;;;;;0.00;0.00;;;;;16.47;59.01;100041.09;146622;575;46010;-66
2023/01/20 01:52:03;;;;;;;;;2.67;1.33;;;;;16.46;58.05;100036.72;146616;585;46017;-70
2023/01/20 01:55:03;;;;;;;;;1.00;1.00;;;;;16.43;58.60;100023.59;146622;594;46020;-69
2023/01/20 01:57:58;;;;;;;;;2.67;0.00;;;;;16.43;57.89;100050.63;146620;628;46013;-67
2023/01/20 02:00:51;;;;;;;;;1.00;0.33;;;;;16.45;58.96;100056.78;146624;625;46010;-69
2023/01/20 02:04:17;;;;;;;;;0.00;0.00;;;;;16.45;56.56;100048.94;146616;563;46016;-68
2023/01/20 02:07:16;;;;;;;;;1.00;0.00;;;;;16.40;56.92;100041.00;146624;597;46010;-71
2023/01/20 02:10:30;;;;;;;;;2.00;0.00;;;;;16.33;57.42;100043.50;146619;617;46043;-71
2023/01/20 02:13:24;;;;;;;;;0.00;0.00;;;;;16.27;58.51;100040.78;146618;569;46021;-71
2023/01/20 02:16:55;;;;;;;;;2.00;1.33;;;;;16.26;57.69;100054.69;146620;686;46016;-69
2023/01/20 02:20:24;;;;;;;;;1.00;1.00;;;;;16.26;57.20;100046.84;146625;573;46013;-67
2023/01/20 02:23:55;;;;;;;;;0.00;0.00;;;;;16.26;57.42;100047.75;146619;579;46016;-66
2023/01/20 02:27:11;;;;;;;;;0.00;0.00;;;;;16.25;57.37;100043.34;146623;604;46021;-66
2023/01/20 02:31:10;;;;;;;;;1.67;1.67;;;;;16.24;57.43;100059.03;146622;563;46034;-66
2023/01/20 02:34:31;;;;;;;;;1.33;0.00;;;;;16.15;57.08;100071.09;146628;648;47010;-69
2023/01/20 02:37:48;;;;;;;;;0.67;0.00;;;;;16.02;56.94;100089.16;146618;599;46029;-68
2023/01/20 02:41:27;;;;;;;;;0.67;0.00;;;;;15.82;56.57;100070.44;146621;613;47010;-66
2023/01/20 02:44:59;;;;;;;;;0.00;0.00;;;;;14.59;60.14;99898.12;146617;569;46016;-67
2023/01/20 02:48:11;;;;;;;;;0.00;0.00;;;;;15.45;59.62;100080.09;146614;610;46013;-68
2023/01/20 02:51:32;;;;;;;;;0.00;0.00;;;;;15.36;61.97;100087.78;146618;604;46917;-66
2023/01/20 02:54:27;;;;;;;;;0.00;0.00;;;;;15.27;61.61;100091.06;146618;630;47010;-68
2023/01/20 02:57:47;;;;;;;;;0.00;0.00;;;;;15.22;60.33;100098.78;146618;570;46917;-66
2023/01/20 03:01:03;;;;;;;;;0.00;0.00;;;;;15.11;61.89;100095.06;146622;571;46020;-66
2023/01/20 03:04:17;;;;;;;;;0.67;0.00;;;;;15.04;60.91;100098.34;146619;584;46017;-67
2023/01/20 03:07:18;;;;;;;;;0.00;0.00;;;;;14.96;62.07;100086.88;146625;588;45020;-69
2023/01/20 03:10:18;;;;;;;;;0.00;0.00;;;;;14.85;63.78;100091.84;146617;569;48012;-69
2023/01/20 03:13:40;;;;;;;;;0.00;0.00;;;;;14.74;62.34;100096.81;146623;707;46021;-68
2023/01/20 03:16:34;;;;;;;;;0.00;0.00;;;;;14.64;65.04;100086.09;146619;588;46012;-70
2023/01/20 03:19:58;;;;;;;;;0.67;0.00;;;;;14.54;66.93;100071.94;146617;619;46010;-70
2023/01/20 03:22:52;;;;;;;;;0.00;0.00;;;;;14.48;67.00;100064.81;146618;569;46016;-68
2023/01/20 03:25:54;;;;;;;;;0.00;0.00;;;;;14.46;66.10;100065.62;146623;565;46020;-69
2023/01/20 03:28:48;;;;;;;;;1.00;0.00;;;;;14.41;67.95;100078.53;146618;626;46016;-70
2023/01/20 03:31:49;;;;;;;;;0.00;0.00;;;;;14.33;69.09;100064.44;146628;624;46020;-69
2023/01/20 03:34:48;;;;;;;;;0.00;0.00;;;;;14.28;70.19;100043.44;146619;652;46915;-69
2023/01/20 03:37:52;;;;;;;;;0.00;0.00;;;;;14.19;70.95;100035.38;146622;565;46010;-70
2023/01/20 03:40:59;;;;;;;;;1.67;0.00;;;;;14.03;71.23;100033.25;146617;575;46012;-68
2023/01/20 03:44:26;;;;;;;;;0.00;0.00;;;;;13.90;71.22;100010.31;146621;608;46020;-68
2023/01/20 03:47:43;;;;;;;;;0.00;0.00;;;;;13.84;69.68;100011.03;146617;642;46034;-66
2023/01/20 03:51:22;;;;;;;;;0.33;0.00;;;;;13.77;69.58;99994.34;146615;593;47010;-67
2023/01/20 03:54:38;;;;;;;;;0.00;0.00;;;;;13.79;70.15;99997.84;146618;577;46016;-68
2023/01/20 03:57:44;;;;;;;;;0.00;0.00;;;;;13.78;70.13;99990.00;146623;607;46021;-68
2023/01/20 04:00:47;;;;;;;;;0.00;0.00;;;;;13.81;69.62;99996.19;146620;614;46014;-69
2023/01/20 04:03:46;;;;;;;;;1.00;0.00;;;;;13.88;68.97;100022.41;146624;607;46029;-70
2023/01/20 04:06:58;;;;;;;;;0.67;0.00;;;;;13.86;68.37;100018.03;146631;586;46014;-71
2023/01/20 04:10:21;;;;;;;;;0.00;0.00;;;;;12.50;68.97;99785.19;146637;627;45011;-71
2023/01/20 04:13:23;;;;;;;;;0.00;0.00;;;;;12.65;70.02;99827.22;146636;572;45016;-70
2023/01/20 04:16:21;;;;;;;;;1.00;0.00;;;;;13.75;71.03;100037.72;146638;599;45020;-70
2023/01/20 04:19:26;;;;;;;;;0.00;0.00;;;;;13.74;71.60;99998.59;146635;580;45016;-72
2023/01/20 04:23:01;;;;;;;;;0.00;0.00;;;;;13.70;71.79;99987.19;146632;721;45010;-67
2023/01/20 04:26:10;;;;;;;;;0.00;0.00;;;;;13.63;72.57;99962.69;146636;572;44017;-70
2023/01/20 04:29:07;;;;;;;;;0.00;0.00;;;;;13.63;71.83;99941.84;146638;575;45010;-68
2023/01/20 04:32:30;;;;;;;;;0.00;0.00;;;;;12.23;71.73;99699.50;146633;601;46915;-69
2023/01/20 04:35:26;;;;;;;;;0.00;0.00;;;;;13.66;71.71;99953.22;146638;656;45010;-70
2023/01/20 04:38:20;;;;;;;;;0.00;0.00;;;;;13.64;72.74;99953.16;146635;571;45915;-71
2023/01/20 04:41:23;;;;;;;;;0.00;0.00;;;;;13.62;73.11;99957.47;146639;585;44021;-70
2023/01/20 04:44:21;;;;;;;;;0.00;0.00;;;;;13.60;73.54;99949.59;146635;649;46022;-69
2023/01/20 04:47:38;;;;;;;;;;;;;;;;;;;;;
2023/01/20 04:50:37;;;;;;;;;0.00;0.00;;;;;13.54;73.45;99965.06;146634;569;45016;-67
2023/01/20 04:53:37;;;;;;;;;3.00;0.33;;;;;13.46;74.47;99974.41;146630;581;45020;-67
2023/01/20 04:56:31;;;;;;;;;1.00;1.00;;;;;13.49;74.19;99978.78;146634;599;46016;-70
2023/01/20 04:59:26;;;;;;;;;0.00;0.00;;;;;13.49;73.06;99979.69;146636;593;46010;-70
2023/01/20 05:02:19;;;;;;;;;0.00;0.00;;;;;13.48;73.74;99987.44;146635;583;45014;-71
2023/01/20 05:05:12;;;;;;;;;0.00;0.00;;;;;13.51;72.81;99978.00;146627;593;46010;-71
2023/01/20 05:08:13;;;;;;;;;1.00;0.00;;;;;13.52;72.39;99939.81;146617;574;46014;-70
2023/01/20 05:11:21;;;;;;;;;0.00;0.00;;;;;13.52;72.53;99929.38;146616;651;47020;-69
2023/01/20 05:14:17;;;;;;;;;0.00;0.00;;;;;13.50;71.79;99913.72;146620;569;46016;-69
2023/01/20 05:17:12;;;;;;;;;0.00;0.00;;;;;13.50;71.81;99894.63;146623;588;46010;-71
2023/01/20 05:20:19;;;;;;;;;2.67;0.00;;;;;13.52;71.18;99888.63;146620;626;46016;-68
2023/01/20 05:23:11;;;;;;;;;0.00;0.00;;;;;13.54;70.61;99881.72;146618;643;46010;-69
2023/01/20 05:26:05;;;;;;;;;0.00;0.00;;;;;13.50;70.47;99886.81;146619;620;46016;-69
2023/01/20 05:29:15;;;;;;;;;0.33;0.00;;;;;13.50;70.69;99889.41;146624;578;46020;-72
2023/01/20 05:32:16;;;;;;;;;0.00;0.00;;;;;13.44;70.59;99886.66;146619;633;46013;-71
2023/01/20 05:35:30;;;;;;;;;0.00;0.00;;;;;12.99;69.96;99812.56;146621;632;46010;-68
2023/01/20 05:38:25;;;;;;;;;0.00;0.00;;;;;13.33;71.17;99865.53;146616;574;46015;-70
2023/01/20 05:41:17;;;;;;;;;0.00;0.00;;;;;13.32;71.58;99846.41;146622;677;46010;-70
2023/01/20 05:44:15;;;;;;;;;0.00;0.00;;;;;13.31;71.25;99862.91;146616;606;46012;-71
2023/01/20 05:47:22;;;;;;;;;0.00;0.00;;;;;13.26;72.17;99868.81;146621;564;46021;-69
2023/01/20 05:50:24;;;;;;;;;0.00;0.00;;;;;13.28;72.41;99880.16;146614;604;46016;-69
2023/01/20 05:53:21;;;;;;;;;0.00;0.00;;;;;13.27;72.24;99894.00;146617;570;46010;-72
2023/01/20 05:56:20;;;;;;;;;0.00;0.00;;;;;13.38;71.14;99926.44;146617;564;46012;-73
2023/01/20 05:59:15;;;;;;;;;0.00;0.00;;;;;13.47;70.75;99957.06;146621;570;46012;-71
2023/01/20 06:02:17;;;;;;;;;0.67;0.00;;;;;13.50;70.97;99972.75;146619;564;46014;-71
2023/01/20 06:05:12;;;;;;;;;0.00;0.00;;;;;13.55;70.85;99972.06;146621;570;46020;-70
2023/01/20 06:08:04;;;;;;;;;0.00;0.00;;;;;13.55;71.20;99965.94;146619;587;46012;-73
2023/01/20 06:11:08;;;;;;;;;0.33;0.00;;;;;13.53;70.71;99965.03;146621;571;47010;-72
2023/01/20 06:14:13;;;;;;;;;0.67;0.67;;;;;13.55;71.23;99989.38;146613;569;46012;-72
2023/01/20 06:17:15;;;;;;;;;1.25;1.25;;;;;13.55;71.53;99994.59;146620;572;46020;-73
2023/01/20 06:20:21;;;;;;;;;0.00;0.00;;;;;13.52;72.69;99989.28;146620;562;46016;-72
2023/01/20 06:23:24;;;;;;;;;0.00;0.00;;;;;13.52;72.77;99991.91;146610;683;46010;-73
2023/01/20 06:26:23;;;;;;;;;0.00;0.00;;;;;13.61;71.91;99984.34;146619;629;46915;-69
2023/01/20 06:29:21;;;;;;;;;0.00;0.00;;;;;13.66;70.83;99985.34;146622;659;46010;-69
2023/01/20 06:32:14;;;;;;;;;0.67;0.67;;;;;13.72;70.89;99961.19;146618;582;46013;-70
2023/01/20 06:35:12;;;;;;;;;0.00;0.00;;;;;13.69;70.91;99967.19;146622;583;46012;-70
2023/01/20 06:38:07;;;;;;;;;0.00;0.00;;;;;13.68;70.79;99959.34;146618;637;46016;-70
2023/01/20 06:41:17;;;;;;;;;1.75;0.00;;;;;13.74;69.86;99983.84;146619;584;46021;-69
2023/01/20 06:44:12;;;;;;;;;1.00;1.00;;;;;13.86;71.29;99981.56;146611;566;46915;-69
2023/01/20 06:47:05;;;;;;;;;0.00;0.00;;;;;14.02;71.06;99992.38;146620;629;47034;-68
2023/01/20 06:49:58;;;;;;;;;0.00;0.00;;;;;14.07;70.82;99989.03;146616;602;46016;-68
2023/01/20 06:52:58;;;;;;;;;0.33;0.00;;;;;13.06;70.67;99831.81;146609;588;46020;-70
2023/01/20 06:56:06;;;;;;;;;1.00;1.00;;;;;14.09;70.67;100005.59;146614;675;46012;-70
2023/01/20 06:59:09;;;;;;;;;0.00;0.00;;;;;14.17;66.94;100007.50;146623;680;46020;-69
2023/01/20 07:02:09;;;;;;;;;0.00;0.00;;;;;14.25;66.31;100019.91;146616;565;46030;-70
2023/01/20 07:05:14;;;;;;;;;0.00;0.00;;;;;14.33;65.81;100021.00;146619;634;46020;-69
2023/01/20 07:08:10;;;;;;;;;0.00;0.00;;;;;14.40;64.56;100029.84;146616;613;46017;-69
2023/01/20 07:11:15;;;;;;;;;0.00;0.00;;;;;13.07;64.59;99802.34;146623;606;46012;-70
2023/01/20 07:14:15;;;;;;;;;0.33;0.00;;;;;14.48;63.34;100037.84;146620;569;46016;-70
2023/01/20 07:17:13;;;;;;;;;2.00;1.00;;;;;14.49;63.05;100037.88;146623;598;46010;-70
2023/01/20 07:20:16;;;;;;;;;1.00;1.00;;;;;14.46;60.96;100042.16;146617;650;46016;-72
2023/01/20 07:23:16;;;;;;;;;0.33;0.33;;;;;14.42;60.41;100051.59;146615;623;46021;-71
2023/01/20 07:26:31;;;;;;;;;;;;;;;;;;;;;
2023/01/20 07:29:39;;;;;;;;;5.25;4.00;;;;;14.43;61.91;100050.78;146622;585;46020;-74
2023/01/20 07:32:50;;;;;;;;;2.00;0.00;;;;;14.50;62.30;100047.47;146615;579;46027;-75
2023/01/20 07:35:48;;;;;;;;;0.00;0.00;;;;;14.58;61.81;100054.63;146620;631;46020;-74
2023/01/20 07:38:42;;;;;;;;;3.00;3.00;;;;;14.62;61.73;100065.19;146616;566;46915;-70
2023/01/20 07:41:47;;;;;;;;;;;;;;;;;;;;;
2023/01/20 07:44:54;;;;;;;;;5.50;4.25;;;;;14.65;61.36;100041.78;146618;570;45862;-72
2023/01/20 07:47:51;;;;;;;;;6.25;5.25;;;;;14.66;60.62;100032.22;146622;629;46020;-71
2023/01/20 07:50:49;;;;;;;;;10.50;10.50;;;;;14.68;60.65;100046.19;146613;563;46915;-71
2023/01/20 07:53:53;;;;;;;;;9.50;9.50;;;;;14.74;59.24;100056.78;146609;618;46010;-70
2023/01/20 07:56:56;;;;;;;;;2.00;1.00;;;;;14.90;59.57;100065.84;146617;610;46016;-71
2023/01/20 08:00:12;;;;;;;;;1.75;1.75;;;;;15.12;58.25;100055.03;146619;578;46020;-70
2023/01/20 08:03:09;;;;;;;;;1.25;0.25;;;;;15.21;56.67;100063.06;146616;602;46016;-69
2023/01/20 08:06:10;;;;;;;;;0.00;0.00;;;;;15.20;51.24;100053.50;146623;616;46020;-72
2023/01/20 08:09:11;;;;;;;;;0.00;0.00;;;;;15.14;53.31;100076.84;146617;582;46017;-75
2023/01/20 08:12:04;;;;;;;;;1.25;1.00;;;;;15.14;54.40;100126.47;146618;620;47012;-72
2023/01/20 08:15:11;;;;;;;;;2.00;1.00;;;;;15.10;54.85;100135.06;146617;592;46036;-71
2023/01/20 08:18:03;;;;;;;;;0.00;0.00;;;;;15.07;52.02;100141.94;146622;572;46915;-72
2023/01/20 08:21:21;;;;;;;;;0.00;0.00;;;;;14.96;50.32;100142.56;146614;681;46016;-71
2023/01/20 08:26:59;;;;;;;;;0.00;0.00;;;;;14.95;52.37;100127.78;146618;484;46016;-72
2023/01/20 08:29:59;;;;;;;;;1.33;0.33;;;;;15.19;51.77;100121.34;146616;606;47020;-76
2023/01/20 08:32:53;;;;;;;;;1.00;1.00;;;;;15.40;50.56;100126.19;146611;579;47012;-76
2023/01/20 08:35:50;;;;;;;;;1.67;1.33;;;;;15.07;50.10;100076.66;146616;601;47010;-75
2023/01/20 08:39:02;;;;;;;;;0.00;0.00;;;;;15.47;50.21;100172.47;146614;625;46014;-75
2023/01/20 08:42:02;;;;;;;;;0.33;0.33;;;;;15.37;48.16;100173.13;146618;686;46012;-76
2023/01/20 08:45:00;;;;;;;;;1.25;0.50;;;;;15.27;48.91;100171.16;146609;595;47013;-75
2023/01/20 08:48:08;;;;;;;;;0.00;0.00;;;;;15.16;49.27;100169.16;146617;631;46020;-76
2023/01/20 08:51:06;;;;;;;;;0.00;0.00;;;;;15.13;48.87;100168.19;146612;695;47012;-73
2023/01/20 08:54:02;;;;;;;;;0.00;0.00;;;;;15.13;48.33;100173.44;146604;645;47021;-77
2023/01/20 08:57:00;;;;;;;;;1.00;1.00;;;;;15.12;46.47;100185.59;146612;603;46012;-77
2023/01/20 08:59:52;;;;;;;;;0.00;0.00;;;;;15.33;47.29;100194.81;146619;627;46010;-78
2023/01/20 09:02:50;;;;;;;;;0.33;0.33;;;;;15.73;47.47;100185.25;146614;682;46914;-77
2023/01/20 09:05:50;;;;;;;;;4.67;2.33;;;;;16.20;46.15;100183.66;146619;597;46020;-77
2023/01/20 09:08:51;;;;;;;;;0.00;0.00;;;;;16.62;44.49;100193.16;146620;578;46012;-78
2023/01/20 09:11:49;;;;;;;;;30.50;26.50;;;;;17.00;47.42;100190.34;146620;580;46012;-77
2023/01/20 09:14:51;;;;;;;;;;;;;;;;;;;;;
2023/01/20 09:17:55;;;;;;;;;0.00;0.00;;;;;17.74;43.08;100174.00;146620;582;46020;-77
2023/01/20 09:20:50;;;;;;;;;0.00;0.00;;;;;17.91;41.79;100184.72;146620;654;46915;-78
2023/01/20 09:23:58;;;;;;;;;0.00;0.00;;;;;17.96;41.07;100186.56;146619;684;46020;-76
2023/01/20 09:26:57;;;;;;;;;0.00;0.00;;;;;17.78;41.42;100176.72;146619;590;46915;-78
2023/01/20 09:29:52;;;;;;;;;2.00;0.00;;;;;17.53;41.96;100175.47;146623;575;46020;-77
2023/01/20 09:32:52;;;;;;;;;0.33;0.33;;;;;17.31;43.50;100187.38;146618;606;46014;-79
2023/01/20 09:35:45;;;;;;;;;0.00;0.00;;;;;17.01;41.33;100176.44;146622;594;46012;-78
2023/01/20 09:45:47;;;;;;;;;0.00;0.00;;;;;16.08;46.48;100168.59;146617;569;46014;-79
2023/01/20 09:56:00;;;;;;;;;0.00;0.00;;;;;15.92;48.42;100140.38;146615;564;47012;-81
2023/01/20 09:59:30;;;;;;;;;0.00;0.00;;;;;15.69;48.96;100043.19;146619;657;46013;-78
2023/01/20 10:02:35;;;;;;;;;0.00;0.00;;;;;16.51;44.01;100137.12;146623;572;46022;-79
2023/01/20 10:05:49;;;;;;;;;1.00;0.00;;;;;15.98;43.24;100033.31;146620;613;46033;-78
2023/01/20 10:09:36;;;;;;;;;0.00;0.00;;;;;15.91;44.75;100021.81;146621;570;46034;-78
2023/01/20 10:13:00;;;;;;;;;0.00;0.00;;;;;16.37;43.71;100126.41;146606;682;47016;-79
2023/01/20 10:16:20;;;;;;;;;0.00;0.00;;;;;16.45;41.90;100135.28;146618;570;48025;-78
2023/01/20 10:19:28;;;;;;;;;0.00;0.00;;;;;16.59;41.81;100125.94;146618;567;47017;-79
2023/01/20 10:23:12;;;;;;;;;1.00;0.00;;;;;16.33;40.39;100033.03;146623;574;46020;-80
2023/01/20 10:26:52;;;;;;;;;1.33;0.00;;;;;17.16;41.24;100126.88;146618;571;46016;-80
2023/01/20 10:30:22;;;;;;;;;0.33;0.33;;;;;17.57;40.79;100144.03;146621;652;46021;-78
2023/01/20 10:33:32;;;;;;;;;0.00;0.00;;;;;17.74;39.87;100151.28;146619;669;46016;-80
2023/01/20 10:36:30;;;;;;;;;0.00;0.00;;;;;17.81;38.50;100140.91;146621;602;47020;-79
2023/01/20 10:39:53;;;;;;;;;0.00;0.00;;;;;17.82;39.14;100130.44;146617;563;46016;-81
2023/01/20 10:43:02;;;;;;;;;0.00;0.00;;;;;17.09;40.60;100049.94;146621;643;46024;-82
2023/01/20 10:46:40;;;;;;;;;0.00;0.00;;;;;17.02;40.16;100070.78;146618;594;46012;-80
2023/01/20 10:50:18;;;;;;;;;0.00;0.00;;;;;17.43;44.60;100160.47;146624;652;46013;-78
2023/01/20 10:54:02;;;;;;;;;0.00;0.00;;;;;16.67;42.44;100065.00;146621;625;46012;-77
2023/01/20 10:57:14;;;;;;;;;0.00;0.00;;;;;17.12;42.11;100181.81;146623;586;45034;-76
2023/01/20 11:00:43;;;;;;;;;0.00;0.00;;;;;17.09;39.58;100182.66;146620;605;46014;-77
2023/01/20 11:04:06;;;;;;;;;0.00;0.00;;;;;17.06;42.19;100198.31;146620;586;46020;-79
2023/01/20 11:07:08;;;;;;;;;0.33;0.00;;;;;17.06;41.33;100214.03;146634;563;46016;-78
2023/01/20 11:10:29;;;;;;;;;0.00;0.00;;;;;17.16;40.98;100212.44;146638;571;45010;-77
2023/01/20 11:13:25;;;;;;;;;0.00;0.00;;;;;17.29;38.70;100230.16;146632;625;46013;-76
2023/01/20 11:16:33;;;;;;;;;0.00;0.00;;;;;17.30;40.54;100226.66;146636;675;45020;-80
2023/01/20 11:19:35;;;;;;;;;0.00;0.00;;;;;17.36;38.37;100225.88;146637;594;45016;-78
2023/01/20 11:22:44;;;;;;;;;0.00;0.00;;;;;17.48;40.79;100224.34;146637;563;45020;-77
2023/01/20 11:25:40;;;;;;;;;0.33;0.00;;;;;17.53;38.98;100201.66;146632;612;46915;-77
2023/01/20 11:29:13;;;;;;;;;0.00;0.00;;;;;17.29;38.56;100196.09;146637;652;45020;-76
2023/01/20 11:32:08;;;;;;;;;0.00;0.00;;;;;16.93;37.90;100205.09;146635;662;45012;-80
2023/01/20 11:35:08;;;;;;;;;0.00;0.00;;;;;16.61;36.07;100197.53;146633;564;46012;-79
2023/01/20 11:38:06;;;;;;;;;0.67;0.33;;;;;16.54;39.88;100207.84;146635;654;45016;-77
2023/01/20 11:41:04;;;;;;;;;2.50;1.75;;;;;16.65;37.93;100206.31;146636;622;46010;-76
2023/01/20 11:44:12;;;;;;;;;0.00;0.00;;;;;16.71;38.93;100216.00;146629;625;47915;-77
2023/01/20 11:47:26;;;;;;;;;1.00;1.00;;;;;16.69;40.63;100204.62;146637;625;45010;-76
2023/01/20 11:50:39;;;;;;;;;0.00;0.00;;;;;16.62;40.81;100199.28;146633;565;46013;-77
2023/01/20 11:53:48;;;;;;;;;0.00;0.00;;;;;16.48;38.00;100200.78;146638;569;45020;-76
2023/01/20 11:56:51;;;;;;;;;0.00;0.00;;;;;16.31;38.41;100196.94;146634;663;45017;-75
2023/01/20 11:59:52;;;;;;;;;0.00;0.00;;;;;16.19;38.94;100201.91;146635;563;45020;-77
2023/01/20 12:02:46;;;;;;;;;0.00;0.00;;;;;16.09;38.68;100212.19;146635;602;45014;-75
2023/01/20 12:06:11;;;;;;;;;;;;;;;;;;;;;
2023/01/20 12:09:33;;;;;;;;;0.00;0.00;;;;;15.80;38.79;100223.78;146613;621;48913;-76
2023/01/20 12:12:41;;;;;;;;;0.00;0.00;;;;;15.51;38.36;100223.94;146623;583;46010;-77
2023/01/20 12:16:01;;;;;;;;;0.00;0.00;;;;;14.16;41.23;100045.75;146619;563;46014;-76
2023/01/20 12:19:25;;;;;;;;;0.00;0.00;;;;;15.17;42.94;100241.44;146623;649;46010;-76
2023/01/20 12:22:43;;;;;;;;;;;;;;;;;;;;;
2023/01/20 12:25:59;;;;;;;;;2.00;2.00;;;;;15.02;41.61;100247.16;146621;587;46020;-78
2023/01/20 12:29:34;;;;;;;;;5.00;3.25;;;;;13.78;44.13;100037.78;146620;685;46012;-78
2023/01/20 12:32:39;;;;;;;;;;;;;;;;;;;;;
2023/01/20 12:36:03;;;;;;;;;11.25;9.00;;;;;13.86;43.57;100037.97;146614;673;47031;-80
2023/01/20 12:39:35;;;;;;;;;8.50;7.50;;;;;15.11;43.47;100246.53;146617;586;46020;-78
2023/01/20 12:43:23;;;;;;;;;1.00;0.75;;;;;15.16;44.22;100247.50;146617;658;46012;-77
2023/01/20 12:46:41;;;;;;;;;32.00;27.75;;;;;14.16;44.89;100048.34;146621;563;46010;-77
2023/01/20 12:50:30;;;;;;;;;30.50;29.25;;;;;14.66;44.41;100067.03;146610;579;46013;-79
2023/01/20 12:53:55;;;;;;;;;2.00;1.75;;;;;16.60;43.49;100269.06;146612;684;46020;-77
2023/01/20 12:57:42;;;;;;;;;0.00;0.00;;;;;17.41;42.71;100267.00;146621;588;46029;-80
2023/01/20 13:01:28;;;;;;;;;0.33;0.00;;;;;17.68;42.07;100176.53;146624;564;46010;-77
2023/01/20 13:04:55;;;;;;;;;0.00;0.00;;;;;18.24;39.28;100271.75;146620;649;46012;-79
2023/01/20 13:08:40;;;;;;;;;0.00;0.00;;;;;18.48;39.84;100278.19;146622;569;46010;-79
2023/01/20 13:12:16;;;;;;;;;3.00;0.00;;;;;18.95;36.61;100274.34;146612;583;48917;-78
2023/01/20 13:15:45;;;;;;;;;2.33;0.33;;;;;18.18;37.64;100093.25;146620;684;47010;-78
2023/01/20 13:19:48;;;;;;;;;0.00;0.00;;;;;18.35;39.30;100087.25;146620;576;46013;-77
2023/01/20 13:22:41;;;;;;;;;1.00;1.00;;;;;19.49;33.22;100273.94;146623;626;46012;-76
2023/01/20 13:25:39;;;;;;;;;1.33;0.00;;;;;19.46;34.30;100273.03;146617;575;46016;-73
2023/01/20 13:28:39;;;;;;;;;0.33;0.33;;;;;19.39;34.54;100261.59;146620;602;47010;-76
2023/01/20 13:32:03;;;;;;;;;0.33;0.33;;;;;18.40;37.97;100073.31;146615;630;46917;-75
2023/01/20 13:35:26;;;;;;;;;0.00;0.00;;;;;19.44;37.08;100259.00;146619;679;46010;-74
2023/01/20 13:38:29;;;;;;;;;0.00;0.00;;;;;19.61;34.07;100242.47;146619;615;46016;-75
2023/01/20 13:41:58;;;;;;;;;0.00;0.00;;;;;19.85;35.42;100246.19;146621;635;46010;-75
2023/01/20 13:45:29;;;;;;;;;0.00;0.00;;;;;19.01;35.82;100080.84;146617;616;46018;-75
2023/01/20 13:48:27;;;;;;;;;0.00;0.00;;;;;20.11;34.82;100270.00;146619;599;47021;-75
2023/01/20 13:51:48;;;;;;;;;0.00;0.00;;;;;19.28;37.28;100098.56;146619;568;46016;-76
2023/01/20 13:55:09;;;;;;;;;4.67;4.00;;;;;20.49;36.19;100264.88;146621;565;46020;-76
2023/01/20 13:58:05;;;;;;;;;2.00;2.00;;;;;20.66;31.80;100264.97;146618;654;46025;-76
2023/01/20 14:01:15;;;;;;;;;0.00;0.00;;;;;20.59;34.16;100286.94;146622;583;46020;-74
2023/01/20 14:04:33;;;;;;;;;3.00;3.00;;;;;20.58;36.83;100276.38;146616;588;46017;-76
2023/01/20 14:07:32;;;;;;;;;10.25;9.25;;;;;20.50;33.03;100276.31;146621;634;45020;-75
2023/01/20 14:10:28;;;;;;;;;4.00;2.67;;;;;20.36;31.38;100283.28;146618;569;46017;-77
2023/01/20 14:13:37;;;;;;;;;0.00;0.00;;;;;20.18;32.81;100284.94;146624;592;46010;-77
2023/01/20 14:16:53;;;;;;;;;1.00;1.00;;;;;20.03;33.57;100284.84;146620;564;46012;-76
2023/01/20 14:20:25;;;;;;;;;1.00;1.00;;;;;18.53;34.60;100112.81;146621;595;46020;-75
2023/01/20 14:23:51;;;;;;;;;5.00;4.00;;;;;17.83;34.79;100092.00;146617;584;46016;-75
2023/01/20 14:26:50;;;;;;;;;0.00;0.00;;;;;18.90;32.78;100290.06;146619;608;46021;-76
2023/01/20 14:30:10;;;;;;;;;1.67;1.67;;;;;18.93;33.96;100290.97;146620;600;46012;-74
2023/01/20 14:33:11;;;;;;;;;5.50;5.50;;;;;18.87;33.76;100301.41;146621;690;46020;-75
2023/01/20 14:36:22;;;;;;;;;1.00;1.00;;;;;18.65;35.59;100302.00;146622;630;46012;-74
2023/01/20 14:39:38;;;;;;;;;2.67;2.00;;;;;18.45;38.13;100307.91;146622;578;46021;-75
2023/01/20 14:42:57;;;;;;;;;2.00;2.00;;;;;18.30;35.72;100320.81;146619;627;46016;-76
2023/01/20 14:46:00;;;;;;;;;1.00;1.00;;;;;18.04;36.77;100327.44;146622;593;46030;-75
2023/01/20 14:48:59;;;;;;;;;5.25;4.00;;;;;17.85;37.18;100340.31;146616;581;46016;-75
2023/01/20 14:51:56;;;;;;;;;3.67;3.67;;;;;17.69;35.15;100328.63;146621;573;46012;-74
2023/01/20 14:54:55;;;;;;;;;23.50;23.50;;;;;17.50;35.23;100329.19;146618;662;46016;-76
2023/01/20 14:57:55;;;;;;;;;0.00;0.00;;;;;17.33;36.53;100328.91;146614;606;46020;-75
2023/01/20 15:00:53;;;;;;;;;2.00;1.00;;;;;17.13;35.79;100333.78;146618;596;46016;-74
2023/01/20 15:04:00;;;;;;;;;5.50;4.75;;;;;16.89;36.38;100352.56;146620;707;46020;-75
2023/01/20 15:07:11;;;;;;;;;1.00;1.00;;;;;16.69;37.21;100351.22;146631;573;46016;-75
2023/01/20 15:10:18;;;;;;;;;1.67;0.00;;;;;16.48;38.55;100341.19;146638;584;45010;-74